sensor_id;sensor_type;location;lat;lon;timestamp;P1;durP1;ratioP1;P2;durP2;ratioP2
16662;SDS011;8445;51.270;9.434;2022-10-16T00:01:26;4.38;;;4.07;;
16662;SDS011;8445;51.270;9.434;2022-10-16T00:03:59;4.68;;;4.30;;
16662;SDS011;8445;51.270;9.434;2022-10-16T00:06:29;4.32;;;4.03;;
16662;SDS011;8445;51.270;9.434;2022-10-16T00:08:57;4.70;;;4.30;;
16662;SDS011;8445;51.270;9.434;2022-10-16T00:11:27;7.50;;;4.40;;
16662;SDS011;8445;51.270;9.434;2022-10-16T00:13:59;3.92;;;3.67;;
16662;SDS011;8445;51.270;9.434;2022-10-16T00:16:27;4.07;;;3.75;;
16662;SDS011;8445;51.270;9.434;2022-10-16T00:18:54;4.30;;;3.88;;
16662;SDS011;8445;51.270;9.434;2022-10-16T00:21:22;4.55;;;4.03;;
16662;SDS011;8445;51.270;9.434;2022-10-16T00:23:53;3.80;;;3.50;;
16662;SDS011;8445;51.270;9.434;2022-10-16T00:26:24;3.97;;;3.60;;
16662;SDS011;8445;51.270;9.434;2022-10-16T00:28:52;5.45;;;4.00;;
16662;SDS011;8445;51.270;9.434;2022-10-16T00:31:19;4.40;;;4.00;;
16662;SDS011;8445;51.270;9.434;2022-10-16T00:33:46;5.47;;;3.70;;
16662;SDS011;8445;51.270;9.434;2022-10-16T00:36:14;6.55;;;4.38;;
16662;SDS011;8445;51.270;9.434;2022-10-16T00:38:43;4.80;;;4.40;;
16662;SDS011;8445;51.270;9.434;2022-10-16T00:41:11;6.82;;;3.65;;
16662;SDS011;8445;51.270;9.434;2022-10-16T00:43:42;4.18;;;3.88;;
16662;SDS011;8445;51.270;9.434;2022-10-16T00:49:06;3.72;;;3.42;;
16662;SDS011;8445;51.270;9.434;2022-10-16T00:51:44;6.75;;;4.40;;
16662;SDS011;8445;51.270;9.434;2022-10-16T00:54:16;5.05;;;4.40;;
16662;SDS011;8445;51.270;9.434;2022-10-16T00:56:47;4.15;;;3.75;;
16662;SDS011;8445;51.270;9.434;2022-10-16T00:59:19;4.53;;;4.22;;
16662;SDS011;8445;51.270;9.434;2022-10-16T01:01:55;4.68;;;4.22;;
16662;SDS011;8445;51.270;9.434;2022-10-16T01:04:23;6.60;;;4.18;;
16662;SDS011;8445;51.270;9.434;2022-10-16T01:09:29;4.63;;;4.28;;
16662;SDS011;8445;51.270;9.434;2022-10-16T01:12:14;5.07;;;4.50;;
16662;SDS011;8445;51.270;9.434;2022-10-16T01:14:53;6.50;;;4.38;;
16662;SDS011;8445;51.270;9.434;2022-10-16T01:17:28;5.05;;;4.28;;
16662;SDS011;8445;51.270;9.434;2022-10-16T01:20:19;7.25;;;4.75;;
16662;SDS011;8445;51.270;9.434;2022-10-16T01:28:59;4.60;;;4.20;;
16662;SDS011;8445;51.270;9.434;2022-10-16T01:32:00;5.38;;;4.78;;
16662;SDS011;8445;51.270;9.434;2022-10-16T01:34:48;7.63;;;4.68;;
16662;SDS011;8445;51.270;9.434;2022-10-16T01:37:43;5.38;;;4.40;;
16662;SDS011;8445;51.270;9.434;2022-10-16T01:40:12;9.82;;;4.25;;
16662;SDS011;8445;51.270;9.434;2022-10-16T01:42:42;7.28;;;4.80;;
16662;SDS011;8445;51.270;9.434;2022-10-16T01:45:28;14.50;;;4.55;;
16662;SDS011;8445;51.270;9.434;2022-10-16T01:47:56;4.60;;;4.13;;
16662;SDS011;8445;51.270;9.434;2022-10-16T01:50:25;4.53;;;4.22;;
16662;SDS011;8445;51.270;9.434;2022-10-16T01:52:52;4.90;;;4.40;;
16662;SDS011;8445;51.270;9.434;2022-10-16T01:55:28;4.57;;;4.00;;
16662;SDS011;8445;51.270;9.434;2022-10-16T01:58:03;5.22;;;4.32;;
16662;SDS011;8445;51.270;9.434;2022-10-16T02:00:34;4.22;;;3.92;;
16662;SDS011;8445;51.270;9.434;2022-10-16T02:03:04;4.43;;;4.10;;
16662;SDS011;8445;51.270;9.434;2022-10-16T02:08:19;7.05;;;3.65;;
16662;SDS011;8445;51.270;9.434;2022-10-16T02:10:54;4.95;;;3.60;;
16662;SDS011;8445;51.270;9.434;2022-10-16T02:13:23;4.32;;;3.92;;
16662;SDS011;8445;51.270;9.434;2022-10-16T02:16:03;4.82;;;4.43;;
16662;SDS011;8445;51.270;9.434;2022-10-16T02:18:30;5.30;;;3.55;;
16662;SDS011;8445;51.270;9.434;2022-10-16T02:23:46;5.28;;;4.40;;
16662;SDS011;8445;51.270;9.434;2022-10-16T02:26:28;4.68;;;4.25;;
16662;SDS011;8445;51.270;9.434;2022-10-16T02:29:07;5.70;;;5.10;;
16662;SDS011;8445;51.270;9.434;2022-10-16T02:31:41;7.28;;;5.75;;
16662;SDS011;8445;51.270;9.434;2022-10-16T02:34:13;10.18;;;5.60;;
16662;SDS011;8445;51.270;9.434;2022-10-16T02:36:41;6.32;;;5.50;;
16662;SDS011;8445;51.270;9.434;2022-10-16T02:39:10;9.15;;;5.95;;
16662;SDS011;8445;51.270;9.434;2022-10-16T02:41:37;6.63;;;5.72;;
16662;SDS011;8445;51.270;9.434;2022-10-16T02:44:03;8.82;;;6.30;;
16662;SDS011;8445;51.270;9.434;2022-10-16T02:46:29;8.90;;;6.40;;
16662;SDS011;8445;51.270;9.434;2022-10-16T02:48:55;8.85;;;6.97;;
16662;SDS011;8445;51.270;9.434;2022-10-16T02:51:20;13.25;;;6.85;;
16662;SDS011;8445;51.270;9.434;2022-10-16T02:53:46;11.25;;;8.02;;
16662;SDS011;8445;51.270;9.434;2022-10-16T02:56:12;10.60;;;8.10;;
16662;SDS011;8445;51.270;9.434;2022-10-16T02:58:38;9.75;;;8.35;;
16662;SDS011;8445;51.270;9.434;2022-10-16T03:01:04;8.85;;;8.02;;
16662;SDS011;8445;51.270;9.434;2022-10-16T03:03:29;9.13;;;8.32;;
16662;SDS011;8445;51.270;9.434;2022-10-16T03:05:55;9.18;;;7.85;;
16662;SDS011;8445;51.270;9.434;2022-10-16T03:08:21;9.00;;;8.05;;
16662;SDS011;8445;51.270;9.434;2022-10-16T03:10:50;9.32;;;8.43;;
16662;SDS011;8445;51.270;9.434;2022-10-16T03:13:16;10.02;;;9.02;;
16662;SDS011;8445;51.270;9.434;2022-10-16T03:15:43;11.55;;;9.77;;
16662;SDS011;8445;51.270;9.434;2022-10-16T03:18:09;11.43;;;9.52;;
16662;SDS011;8445;51.270;9.434;2022-10-16T03:20:34;11.00;;;9.88;;
16662;SDS011;8445;51.270;9.434;2022-10-16T03:23:00;10.88;;;9.77;;
16662;SDS011;8445;51.270;9.434;2022-10-16T03:25:27;10.45;;;9.35;;
16662;SDS011;8445;51.270;9.434;2022-10-16T03:27:53;14.00;;;10.45;;
16662;SDS011;8445;51.270;9.434;2022-10-16T03:30:19;10.93;;;9.85;;
16662;SDS011;8445;51.270;9.434;2022-10-16T03:32:46;11.82;;;9.52;;
16662;SDS011;8445;51.270;9.434;2022-10-16T03:35:12;11.82;;;9.02;;
16662;SDS011;8445;51.270;9.434;2022-10-16T03:37:38;10.50;;;9.13;;
16662;SDS011;8445;51.270;9.434;2022-10-16T03:40:04;10.88;;;9.60;;
16662;SDS011;8445;51.270;9.434;2022-10-16T03:42:30;10.88;;;9.80;;
16662;SDS011;8445;51.270;9.434;2022-10-16T03:44:56;13.40;;;10.90;;
16662;SDS011;8445;51.270;9.434;2022-10-16T03:47:22;11.52;;;10.38;;
16662;SDS011;8445;51.270;9.434;2022-10-16T03:49:49;11.75;;;10.20;;
16662;SDS011;8445;51.270;9.434;2022-10-16T03:52:15;10.05;;;9.15;;
16662;SDS011;8445;51.270;9.434;2022-10-16T03:54:42;10.65;;;9.45;;
16662;SDS011;8445;51.270;9.434;2022-10-16T03:57:07;9.40;;;8.43;;
16662;SDS011;8445;51.270;9.434;2022-10-16T03:59:33;12.38;;;9.85;;
16662;SDS011;8445;51.270;9.434;2022-10-16T04:01:59;10.90;;;9.80;;
16662;SDS011;8445;51.270;9.434;2022-10-16T04:04:25;11.57;;;10.02;;
16662;SDS011;8445;51.270;9.434;2022-10-16T04:06:51;11.68;;;10.48;;
16662;SDS011;8445;51.270;9.434;2022-10-16T04:09:17;12.00;;;10.80;;
16662;SDS011;8445;51.270;9.434;2022-10-16T04:11:42;13.65;;;11.18;;
16662;SDS011;8445;51.270;9.434;2022-10-16T04:14:08;12.25;;;10.60;;
16662;SDS011;8445;51.270;9.434;2022-10-16T04:16:34;11.88;;;10.48;;
16662;SDS011;8445;51.270;9.434;2022-10-16T04:19:00;13.10;;;11.75;;
16662;SDS011;8445;51.270;9.434;2022-10-16T04:21:26;16.42;;;10.90;;
16662;SDS011;8445;51.270;9.434;2022-10-16T04:23:52;14.02;;;11.60;;
16662;SDS011;8445;51.270;9.434;2022-10-16T04:26:17;13.75;;;11.45;;
16662;SDS011;8445;51.270;9.434;2022-10-16T04:28:43;13.20;;;11.93;;
16662;SDS011;8445;51.270;9.434;2022-10-16T04:31:09;12.35;;;11.15;;
16662;SDS011;8445;51.270;9.434;2022-10-16T04:33:35;13.27;;;11.75;;
16662;SDS011;8445;51.270;9.434;2022-10-16T04:36:01;13.35;;;11.48;;
16662;SDS011;8445;51.270;9.434;2022-10-16T04:38:28;12.40;;;11.25;;
16662;SDS011;8445;51.270;9.434;2022-10-16T04:40:55;13.45;;;10.93;;
16662;SDS011;8445;51.270;9.434;2022-10-16T04:43:21;11.88;;;10.68;;
16662;SDS011;8445;51.270;9.434;2022-10-16T04:45:47;15.95;;;10.27;;
16662;SDS011;8445;51.270;9.434;2022-10-16T04:48:15;11.00;;;9.73;;
16662;SDS011;8445;51.270;9.434;2022-10-16T04:50:44;11.48;;;10.10;;
16662;SDS011;8445;51.270;9.434;2022-10-16T04:53:10;12.27;;;9.63;;
16662;SDS011;8445;51.270;9.434;2022-10-16T04:55:36;10.40;;;9.40;;
16662;SDS011;8445;51.270;9.434;2022-10-16T04:58:03;12.13;;;9.85;;
16662;SDS011;8445;51.270;9.434;2022-10-16T05:00:29;13.52;;;9.95;;
16662;SDS011;8445;51.270;9.434;2022-10-16T05:02:55;18.33;;;10.75;;
16662;SDS011;8445;51.270;9.434;2022-10-16T05:05:21;22.50;;;11.70;;
16662;SDS011;8445;51.270;9.434;2022-10-16T05:07:48;15.13;;;10.35;;
16662;SDS011;8445;51.270;9.434;2022-10-16T05:10:14;20.02;;;9.30;;
16662;SDS011;8445;51.270;9.434;2022-10-16T05:12:42;11.98;;;9.48;;
16662;SDS011;8445;51.270;9.434;2022-10-16T05:15:08;16.65;;;9.80;;
16662;SDS011;8445;51.270;9.434;2022-10-16T05:17:34;18.85;;;10.20;;
16662;SDS011;8445;51.270;9.434;2022-10-16T05:20:00;13.57;;;9.90;;
16662;SDS011;8445;51.270;9.434;2022-10-16T05:22:26;15.52;;;10.73;;
16662;SDS011;8445;51.270;9.434;2022-10-16T05:24:52;12.95;;;9.75;;
16662;SDS011;8445;51.270;9.434;2022-10-16T05:27:18;16.45;;;9.73;;
16662;SDS011;8445;51.270;9.434;2022-10-16T05:29:47;18.00;;;9.07;;
16662;SDS011;8445;51.270;9.434;2022-10-16T05:32:14;13.48;;;8.98;;
16662;SDS011;8445;51.270;9.434;2022-10-16T05:34:41;10.85;;;8.55;;
16662;SDS011;8445;51.270;9.434;2022-10-16T05:37:08;15.05;;;9.80;;
16662;SDS011;8445;51.270;9.434;2022-10-16T05:39:34;9.80;;;8.05;;
16662;SDS011;8445;51.270;9.434;2022-10-16T05:42:04;10.52;;;9.20;;
16662;SDS011;8445;51.270;9.434;2022-10-16T05:44:31;13.05;;;9.25;;
16662;SDS011;8445;51.270;9.434;2022-10-16T05:46:57;9.82;;;8.82;;
16662;SDS011;8445;51.270;9.434;2022-10-16T05:49:23;10.38;;;8.57;;
16662;SDS011;8445;51.270;9.434;2022-10-16T05:51:49;14.73;;;9.65;;
16662;SDS011;8445;51.270;9.434;2022-10-16T05:54:15;10.68;;;9.57;;
16662;SDS011;8445;51.270;9.434;2022-10-16T05:56:40;10.10;;;8.15;;
16662;SDS011;8445;51.270;9.434;2022-10-16T05:59:06;12.43;;;9.27;;
16662;SDS011;8445;51.270;9.434;2022-10-16T06:01:32;9.25;;;8.35;;
16662;SDS011;8445;51.270;9.434;2022-10-16T06:04:00;9.93;;;9.02;;
16662;SDS011;8445;51.270;9.434;2022-10-16T06:06:27;10.55;;;9.57;;
16662;SDS011;8445;51.270;9.434;2022-10-16T06:08:55;9.60;;;8.77;;
16662;SDS011;8445;51.270;9.434;2022-10-16T06:11:23;14.60;;;8.10;;
16662;SDS011;8445;51.270;9.434;2022-10-16T06:13:57;12.27;;;9.10;;
16662;SDS011;8445;51.270;9.434;2022-10-16T06:16:27;9.60;;;8.60;;
16662;SDS011;8445;51.270;9.434;2022-10-16T06:18:55;9.88;;;8.05;;
16662;SDS011;8445;51.270;9.434;2022-10-16T06:21:22;10.18;;;7.35;;
16662;SDS011;8445;51.270;9.434;2022-10-16T06:23:51;9.75;;;7.65;;
16662;SDS011;8445;51.270;9.434;2022-10-16T06:26:18;9.00;;;6.82;;
16662;SDS011;8445;51.270;9.434;2022-10-16T06:28:47;6.25;;;5.70;;
16662;SDS011;8445;51.270;9.434;2022-10-16T06:31:13;8.05;;;5.90;;
16662;SDS011;8445;51.270;9.434;2022-10-16T06:33:41;7.53;;;5.13;;
16662;SDS011;8445;51.270;9.434;2022-10-16T06:36:09;7.22;;;4.60;;
16662;SDS011;8445;51.270;9.434;2022-10-16T06:38:41;6.25;;;4.55;;
16662;SDS011;8445;51.270;9.434;2022-10-16T06:41:08;7.40;;;5.18;;
16662;SDS011;8445;51.270;9.434;2022-10-16T06:43:40;5.82;;;4.72;;
16662;SDS011;8445;51.270;9.434;2022-10-16T06:46:07;5.78;;;4.88;;
16662;SDS011;8445;51.270;9.434;2022-10-16T06:48:36;5.65;;;4.55;;
16662;SDS011;8445;51.270;9.434;2022-10-16T06:51:06;8.00;;;4.10;;
16662;SDS011;8445;51.270;9.434;2022-10-16T06:53:42;4.50;;;3.13;;
16662;SDS011;8445;51.270;9.434;2022-10-16T06:56:15;3.13;;;2.92;;
16662;SDS011;8445;51.270;9.434;2022-10-16T06:58:49;3.10;;;2.60;;
16662;SDS011;8445;51.270;9.434;2022-10-16T07:01:17;3.70;;;2.67;;
16662;SDS011;8445;51.270;9.434;2022-10-16T07:03:45;4.13;;;2.55;;
16662;SDS011;8445;51.270;9.434;2022-10-16T07:06:13;2.67;;;2.42;;
16662;SDS011;8445;51.270;9.434;2022-10-16T07:08:43;3.20;;;2.00;;
16662;SDS011;8445;51.270;9.434;2022-10-16T07:11:16;2.17;;;2.05;;
16662;SDS011;8445;51.270;9.434;2022-10-16T07:13:44;2.30;;;2.10;;
16662;SDS011;8445;51.270;9.434;2022-10-16T07:16:12;4.63;;;2.22;;
16662;SDS011;8445;51.270;9.434;2022-10-16T07:18:41;3.70;;;2.15;;
16662;SDS011;8445;51.270;9.434;2022-10-16T07:21:14;2.17;;;2.03;;
16662;SDS011;8445;51.270;9.434;2022-10-16T07:23:44;4.18;;;1.80;;
16662;SDS011;8445;51.270;9.434;2022-10-16T07:26:10;2.75;;;1.80;;
16662;SDS011;8445;51.270;9.434;2022-10-16T07:28:36;1.95;;;1.73;;
16662;SDS011;8445;51.270;9.434;2022-10-16T07:31:08;3.00;;;2.15;;
16662;SDS011;8445;51.270;9.434;2022-10-16T07:33:38;3.70;;;2.42;;
16662;SDS011;8445;51.270;9.434;2022-10-16T07:36:08;5.45;;;2.58;;
16662;SDS011;8445;51.270;9.434;2022-10-16T07:38:34;2.58;;;1.65;;
16662;SDS011;8445;51.270;9.434;2022-10-16T07:41:00;1.90;;;1.80;;
16662;SDS011;8445;51.270;9.434;2022-10-16T07:43:32;2.50;;;1.77;;
16662;SDS011;8445;51.270;9.434;2022-10-16T07:45:59;3.03;;;1.73;;
16662;SDS011;8445;51.270;9.434;2022-10-16T07:48:29;3.95;;;1.75;;
16662;SDS011;8445;51.270;9.434;2022-10-16T07:50:59;2.35;;;1.73;;
16662;SDS011;8445;51.270;9.434;2022-10-16T07:53:26;1.90;;;1.80;;
16662;SDS011;8445;51.270;9.434;2022-10-16T07:55:56;2.30;;;2.10;;
16662;SDS011;8445;51.270;9.434;2022-10-16T07:58:29;3.10;;;2.80;;
16662;SDS011;8445;51.270;9.434;2022-10-16T08:00:55;2.83;;;2.10;;
16662;SDS011;8445;51.270;9.434;2022-10-16T08:03:22;1.70;;;1.60;;
16662;SDS011;8445;51.270;9.434;2022-10-16T08:05:49;1.70;;;1.60;;
16662;SDS011;8445;51.270;9.434;2022-10-16T08:08:16;3.45;;;1.92;;
16662;SDS011;8445;51.270;9.434;2022-10-16T08:10:43;1.80;;;1.70;;
16662;SDS011;8445;51.270;9.434;2022-10-16T08:13:10;2.38;;;1.35;;
16662;SDS011;8445;51.270;9.434;2022-10-16T08:15:36;3.20;;;2.85;;
16662;SDS011;8445;51.270;9.434;2022-10-16T08:18:03;2.00;;;1.90;;
16662;SDS011;8445;51.270;9.434;2022-10-16T08:20:30;2.30;;;2.17;;
16662;SDS011;8445;51.270;9.434;2022-10-16T08:22:59;1.95;;;1.80;;
16662;SDS011;8445;51.270;9.434;2022-10-16T08:25:26;2.03;;;1.70;;
16662;SDS011;8445;51.270;9.434;2022-10-16T08:27:53;1.20;;;1.20;;
16662;SDS011;8445;51.270;9.434;2022-10-16T08:30:20;1.35;;;1.25;;
16662;SDS011;8445;51.270;9.434;2022-10-16T08:32:48;2.33;;;1.38;;
16662;SDS011;8445;51.270;9.434;2022-10-16T08:35:14;1.20;;;1.17;;
16662;SDS011;8445;51.270;9.434;2022-10-16T08:37:43;3.22;;;1.27;;
16662;SDS011;8445;51.270;9.434;2022-10-16T08:40:16;1.30;;;1.20;;
16662;SDS011;8445;51.270;9.434;2022-10-16T08:48:41;2.72;;;1.40;;
16662;SDS011;8445;51.270;9.434;2022-10-16T08:51:25;2.22;;;1.65;;
16662;SDS011;8445;51.270;9.434;2022-10-16T08:54:15;2.10;;;1.55;;
16662;SDS011;8445;51.270;9.434;2022-10-16T08:57:09;2.17;;;1.98;;
16662;SDS011;8445;51.270;9.434;2022-10-16T08:59:47;2.55;;;1.20;;
16662;SDS011;8445;51.270;9.434;2022-10-16T09:16:22;3.40;;;1.40;;
16662;SDS011;8445;51.270;9.434;2022-10-16T09:21:49;1.38;;;1.27;;
16662;SDS011;8445;51.270;9.434;2022-10-16T09:26:45;1.48;;;1.38;;
16662;SDS011;8445;51.270;9.434;2022-10-16T09:29:13;1.50;;;1.40;;
16662;SDS011;8445;51.270;9.434;2022-10-16T09:31:41;2.55;;;1.40;;
16662;SDS011;8445;51.270;9.434;2022-10-16T09:34:13;2.03;;;1.08;;
16662;SDS011;8445;51.270;9.434;2022-10-16T09:36:59;0.95;;;0.95;;
16662;SDS011;8445;51.270;9.434;2022-10-16T09:39:43;1.70;;;0.93;;
16662;SDS011;8445;51.270;9.434;2022-10-16T09:42:13;1.58;;;1.10;;
16662;SDS011;8445;51.270;9.434;2022-10-16T09:45:00;0.73;;;0.73;;
16662;SDS011;8445;51.270;9.434;2022-10-16T09:47:27;4.47;;;1.20;;
16662;SDS011;8445;51.270;9.434;2022-10-16T09:49:57;1.15;;;0.90;;
16662;SDS011;8445;51.270;9.434;2022-10-16T09:52:27;3.90;;;1.00;;
16662;SDS011;8445;51.270;9.434;2022-10-16T09:54:56;2.05;;;0.95;;
16662;SDS011;8445;51.270;9.434;2022-10-16T09:57:25;0.73;;;0.70;;
16662;SDS011;8445;51.270;9.434;2022-10-16T09:59:56;2.67;;;0.55;;
16662;SDS011;8445;51.270;9.434;2022-10-16T10:05:06;3.55;;;0.75;;
16662;SDS011;8445;51.270;9.434;2022-10-16T10:08:00;2.08;;;1.67;;
16662;SDS011;8445;51.270;9.434;2022-10-16T10:10:32;0.82;;;0.80;;
16662;SDS011;8445;51.270;9.434;2022-10-16T10:13:14;2.80;;;0.82;;
16662;SDS011;8445;51.270;9.434;2022-10-16T10:15:49;1.35;;;1.08;;
16662;SDS011;8445;51.270;9.434;2022-10-16T10:18:17;1.17;;;0.95;;
16662;SDS011;8445;51.270;9.434;2022-10-16T10:20:58;2.15;;;1.00;;
16662;SDS011;8445;51.270;9.434;2022-10-16T10:23:26;1.00;;;0.70;;
16662;SDS011;8445;51.270;9.434;2022-10-16T10:26:15;0.70;;;0.70;;
16662;SDS011;8445;51.270;9.434;2022-10-16T10:28:57;2.70;;;1.00;;
16662;SDS011;8445;51.270;9.434;2022-10-16T10:34:31;1.30;;;0.63;;
16662;SDS011;8445;51.270;9.434;2022-10-16T10:37:34;2.92;;;0.90;;
16662;SDS011;8445;51.270;9.434;2022-10-16T10:40:28;0.82;;;0.73;;
16662;SDS011;8445;51.270;9.434;2022-10-16T10:45:52;1.98;;;0.70;;
16662;SDS011;8445;51.270;9.434;2022-10-16T10:54:13;1.98;;;0.90;;
16662;SDS011;8445;51.270;9.434;2022-10-16T11:08:37;0.75;;;0.38;;
16662;SDS011;8445;51.270;9.434;2022-10-16T11:16:46;0.95;;;0.60;;
16662;SDS011;8445;51.270;9.434;2022-10-16T11:24:46;0.88;;;0.68;;
16662;SDS011;8445;51.270;9.434;2022-10-16T11:27:26;0.40;;;0.40;;
16662;SDS011;8445;51.270;9.434;2022-10-16T11:30:08;0.45;;;0.45;;
16662;SDS011;8445;51.270;9.434;2022-10-16T11:38:15;3.30;;;2.10;;
16662;SDS011;8445;51.270;9.434;2022-10-16T11:40:59;0.55;;;0.40;;
16662;SDS011;8445;51.270;9.434;2022-10-16T11:43:41;2.90;;;0.40;;
16662;SDS011;8445;51.270;9.434;2022-10-16T11:46:19;1.33;;;0.70;;
16662;SDS011;8445;51.270;9.434;2022-10-16T11:57:50;0.60;;;0.60;;
16662;SDS011;8445;51.270;9.434;2022-10-16T12:00:27;1.75;;;0.50;;
16662;SDS011;8445;51.270;9.434;2022-10-16T12:05:58;1.00;;;0.68;;
16662;SDS011;8445;51.270;9.434;2022-10-16T12:08:45;1.25;;;0.55;;
16662;SDS011;8445;51.270;9.434;2022-10-16T12:16:33;2.08;;;0.60;;
16662;SDS011;8445;51.270;9.434;2022-10-16T12:19:15;1.30;;;0.63;;
16662;SDS011;8445;51.270;9.434;2022-10-16T12:21:45;2.47;;;0.57;;
16662;SDS011;8445;51.270;9.434;2022-10-16T12:24:36;0.98;;;0.30;;
16662;SDS011;8445;51.270;9.434;2022-10-16T12:27:06;0.77;;;0.60;;
16662;SDS011;8445;51.270;9.434;2022-10-16T12:30:03;0.50;;;0.50;;
16662;SDS011;8445;51.270;9.434;2022-10-16T12:32:35;0.55;;;0.50;;
16662;SDS011;8445;51.270;9.434;2022-10-16T12:35:16;0.57;;;0.40;;
16662;SDS011;8445;51.270;9.434;2022-10-16T12:37:52;1.63;;;0.70;;
16662;SDS011;8445;51.270;9.434;2022-10-16T12:40:32;1.70;;;0.40;;
16662;SDS011;8445;51.270;9.434;2022-10-16T12:48:41;0.45;;;0.45;;
16662;SDS011;8445;51.270;9.434;2022-10-16T12:51:21;4.60;;;0.68;;
16662;SDS011;8445;51.270;9.434;2022-10-16T13:00:43;1.77;;;0.40;;
16662;SDS011;8445;51.270;9.434;2022-10-16T13:18:53;2.35;;;0.68;;
16662;SDS011;8445;51.270;9.434;2022-10-16T13:27:35;0.88;;;0.47;;
16662;SDS011;8445;51.270;9.434;2022-10-16T13:30:27;0.88;;;0.50;;
16662;SDS011;8445;51.270;9.434;2022-10-16T13:33:01;2.03;;;0.80;;
16662;SDS011;8445;51.270;9.434;2022-10-16T13:35:49;0.70;;;0.70;;
16662;SDS011;8445;51.270;9.434;2022-10-16T13:38:22;3.08;;;0.88;;
16662;SDS011;8445;51.270;9.434;2022-10-16T13:40:58;1.98;;;0.98;;
16662;SDS011;8445;51.270;9.434;2022-10-16T13:43:51;1.42;;;0.75;;
16662;SDS011;8445;51.270;9.434;2022-10-16T13:46:22;1.65;;;0.60;;
16662;SDS011;8445;51.270;9.434;2022-10-16T13:49:00;2.10;;;1.25;;
16662;SDS011;8445;51.270;9.434;2022-10-16T13:51:40;1.30;;;0.75;;
16662;SDS011;8445;51.270;9.434;2022-10-16T13:54:09;2.13;;;0.50;;
16662;SDS011;8445;51.270;9.434;2022-10-16T13:56:38;1.95;;;1.02;;
16662;SDS011;8445;51.270;9.434;2022-10-16T13:59:06;1.23;;;0.77;;
16662;SDS011;8445;51.270;9.434;2022-10-16T14:01:58;3.30;;;0.70;;
16662;SDS011;8445;51.270;9.434;2022-10-16T14:04:34;4.45;;;0.73;;
16662;SDS011;8445;51.270;9.434;2022-10-16T14:07:04;0.85;;;0.40;;
16662;SDS011;8445;51.270;9.434;2022-10-16T14:09:30;1.38;;;0.70;;
16662;SDS011;8445;51.270;9.434;2022-10-16T14:12:01;4.60;;;0.82;;
16662;SDS011;8445;51.270;9.434;2022-10-16T14:14:39;1.20;;;0.70;;
16662;SDS011;8445;51.270;9.434;2022-10-16T14:17:16;0.70;;;0.60;;
16662;SDS011;8445;51.270;9.434;2022-10-16T14:19:48;0.93;;;0.55;;
16662;SDS011;8445;51.270;9.434;2022-10-16T14:22:34;3.33;;;0.70;;
16662;SDS011;8445;51.270;9.434;2022-10-16T14:27:44;0.47;;;0.40;;
16662;SDS011;8445;51.270;9.434;2022-10-16T14:30:21;1.02;;;0.88;;
16662;SDS011;8445;51.270;9.434;2022-10-16T14:32:58;2.90;;;0.82;;
16662;SDS011;8445;51.270;9.434;2022-10-16T14:35:56;2.60;;;0.90;;
16662;SDS011;8445;51.270;9.434;2022-10-16T14:38:30;0.98;;;0.60;;
16662;SDS011;8445;51.270;9.434;2022-10-16T14:40:58;0.80;;;0.80;;
16662;SDS011;8445;51.270;9.434;2022-10-16T14:43:36;1.23;;;0.70;;
16662;SDS011;8445;51.270;9.434;2022-10-16T14:48:42;0.60;;;0.50;;
16662;SDS011;8445;51.270;9.434;2022-10-16T14:51:16;1.67;;;0.60;;
16662;SDS011;8445;51.270;9.434;2022-10-16T14:53:49;6.13;;;1.40;;
16662;SDS011;8445;51.270;9.434;2022-10-16T14:56:16;2.10;;;1.15;;
16662;SDS011;8445;51.270;9.434;2022-10-16T14:58:54;1.15;;;0.82;;
16662;SDS011;8445;51.270;9.434;2022-10-16T15:01:21;3.42;;;0.95;;
16662;SDS011;8445;51.270;9.434;2022-10-16T15:03:47;2.58;;;2.35;;
16662;SDS011;8445;51.270;9.434;2022-10-16T15:06:14;3.90;;;2.90;;
16662;SDS011;8445;51.270;9.434;2022-10-16T15:08:41;3.67;;;2.30;;
16662;SDS011;8445;51.270;9.434;2022-10-16T15:11:10;4.45;;;2.10;;
16662;SDS011;8445;51.270;9.434;2022-10-16T15:13:40;2.80;;;1.40;;
16662;SDS011;8445;51.270;9.434;2022-10-16T15:16:16;3.22;;;1.15;;
16662;SDS011;8445;51.270;9.434;2022-10-16T15:18:42;2.75;;;0.70;;
16662;SDS011;8445;51.270;9.434;2022-10-16T15:21:09;1.33;;;0.63;;
16662;SDS011;8445;51.270;9.434;2022-10-16T15:23:50;1.33;;;1.20;;
16662;SDS011;8445;51.270;9.434;2022-10-16T15:26:16;2.92;;;0.77;;
16662;SDS011;8445;51.270;9.434;2022-10-16T15:28:42;4.35;;;0.80;;
16662;SDS011;8445;51.270;9.434;2022-10-16T15:31:07;1.58;;;0.55;;
16662;SDS011;8445;51.270;9.434;2022-10-16T15:33:33;2.08;;;0.82;;
16662;SDS011;8445;51.270;9.434;2022-10-16T15:36:00;1.30;;;0.85;;
16662;SDS011;8445;51.270;9.434;2022-10-16T15:38:28;1.98;;;0.82;;
16662;SDS011;8445;51.270;9.434;2022-10-16T15:40:55;2.10;;;0.77;;
16662;SDS011;8445;51.270;9.434;2022-10-16T15:43:21;3.38;;;1.50;;
16662;SDS011;8445;51.270;9.434;2022-10-16T15:45:58;0.80;;;0.70;;
16662;SDS011;8445;51.270;9.434;2022-10-16T15:48:34;3.25;;;1.10;;
16662;SDS011;8445;51.270;9.434;2022-10-16T15:51:02;1.33;;;1.05;;
16662;SDS011;8445;51.270;9.434;2022-10-16T15:53:31;1.40;;;0.90;;
16662;SDS011;8445;51.270;9.434;2022-10-16T15:56:07;4.93;;;1.10;;
16662;SDS011;8445;51.270;9.434;2022-10-16T15:58:37;1.33;;;0.80;;
16662;SDS011;8445;51.270;9.434;2022-10-16T16:01:04;2.17;;;1.30;;
16662;SDS011;8445;51.270;9.434;2022-10-16T16:03:32;1.45;;;0.98;;
16662;SDS011;8445;51.270;9.434;2022-10-16T16:05:58;4.28;;;2.15;;
16662;SDS011;8445;51.270;9.434;2022-10-16T16:08:33;4.40;;;1.20;;
16662;SDS011;8445;51.270;9.434;2022-10-16T16:11:00;3.92;;;1.50;;
16662;SDS011;8445;51.270;9.434;2022-10-16T16:13:29;2.55;;;0.90;;
16662;SDS011;8445;51.270;9.434;2022-10-16T16:16:04;1.25;;;0.80;;
16662;SDS011;8445;51.270;9.434;2022-10-16T16:18:35;0.85;;;0.80;;
16662;SDS011;8445;51.270;9.434;2022-10-16T16:21:01;2.10;;;0.95;;
16662;SDS011;8445;51.270;9.434;2022-10-16T16:23:32;3.35;;;1.10;;
16662;SDS011;8445;51.270;9.434;2022-10-16T16:28:57;2.72;;;1.50;;
16662;SDS011;8445;51.270;9.434;2022-10-16T16:31:24;1.40;;;1.27;;
16662;SDS011;8445;51.270;9.434;2022-10-16T16:33:52;1.95;;;1.40;;
16662;SDS011;8445;51.270;9.434;2022-10-16T16:36:19;3.95;;;1.45;;
16662;SDS011;8445;51.270;9.434;2022-10-16T16:38:45;4.57;;;1.55;;
16662;SDS011;8445;51.270;9.434;2022-10-16T16:41:19;2.97;;;1.50;;
16662;SDS011;8445;51.270;9.434;2022-10-16T16:43:48;2.03;;;1.70;;
16662;SDS011;8445;51.270;9.434;2022-10-16T16:46:16;2.83;;;1.40;;
16662;SDS011;8445;51.270;9.434;2022-10-16T16:48:43;2.80;;;1.80;;
16662;SDS011;8445;51.270;9.434;2022-10-16T16:51:11;4.72;;;1.42;;
16662;SDS011;8445;51.270;9.434;2022-10-16T16:53:44;1.60;;;1.50;;
16662;SDS011;8445;51.270;9.434;2022-10-16T16:56:13;2.10;;;1.40;;
16662;SDS011;8445;51.270;9.434;2022-10-16T16:58:39;1.90;;;1.52;;
16662;SDS011;8445;51.270;9.434;2022-10-16T17:01:05;2.33;;;1.90;;
16662;SDS011;8445;51.270;9.434;2022-10-16T17:03:35;7.95;;;2.63;;
16662;SDS011;8445;51.270;9.434;2022-10-16T17:06:06;5.00;;;1.60;;
16662;SDS011;8445;51.270;9.434;2022-10-16T17:08:33;4.03;;;3.25;;
16662;SDS011;8445;51.270;9.434;2022-10-16T17:11:00;2.88;;;2.40;;
16662;SDS011;8445;51.270;9.434;2022-10-16T17:13:28;2.42;;;2.22;;
16662;SDS011;8445;51.270;9.434;2022-10-16T17:15:59;2.20;;;1.50;;
16662;SDS011;8445;51.270;9.434;2022-10-16T17:18:26;2.70;;;1.70;;
16662;SDS011;8445;51.270;9.434;2022-10-16T17:20:52;1.70;;;1.60;;
16662;SDS011;8445;51.270;9.434;2022-10-16T17:23:18;2.08;;;1.60;;
16662;SDS011;8445;51.270;9.434;2022-10-16T17:25:45;5.32;;;1.63;;
16662;SDS011;8445;51.270;9.434;2022-10-16T17:28:16;1.65;;;1.55;;
16662;SDS011;8445;51.270;9.434;2022-10-16T17:30:46;3.28;;;1.50;;
16662;SDS011;8445;51.270;9.434;2022-10-16T17:33:12;1.77;;;1.40;;
16662;SDS011;8445;51.270;9.434;2022-10-16T17:35:43;4.22;;;1.50;;
16662;SDS011;8445;51.270;9.434;2022-10-16T17:38:12;5.70;;;1.55;;
16662;SDS011;8445;51.270;9.434;2022-10-16T17:40:39;2.83;;;1.55;;
16662;SDS011;8445;51.270;9.434;2022-10-16T17:43:06;1.95;;;1.50;;
16662;SDS011;8445;51.270;9.434;2022-10-16T17:45:35;1.85;;;1.75;;